sensor_id;sensor_type;location;lat;lon;timestamp;P1;durP1;ratioP1;P2;durP2;ratioP2
65936;SDS011;52707;52.086;5.418;2024-01-15T00:00:57;6.30;;;1.77;;
65936;SDS011;52707;52.086;5.418;2024-01-15T00:03:24;11.52;;;2.25;;
65936;SDS011;52707;52.086;5.418;2024-01-15T00:05:50;10.65;;;1.90;;
65936;SDS011;52707;52.086;5.418;2024-01-15T00:08:17;11.30;;;2.72;;
65936;SDS011;52707;52.086;5.418;2024-01-15T00:10:43;13.00;;;2.20;;
65936;SDS011;52707;52.086;5.418;2024-01-15T00:13:09;9.82;;;1.90;;
65936;SDS011;52707;52.086;5.418;2024-01-15T00:15:36;5.82;;;1.70;;
65936;SDS011;52707;52.086;5.418;2024-01-15T00:18:02;7.00;;;1.75;;
65936;SDS011;52707;52.086;5.418;2024-01-15T00:20:29;13.90;;;2.08;;
65936;SDS011;52707;52.086;5.418;2024-01-15T00:22:56;9.88;;;2.17;;
65936;SDS011;52707;52.086;5.418;2024-01-15T00:25:22;14.32;;;2.33;;
65936;SDS011;52707;52.086;5.418;2024-01-15T00:27:50;13.82;;;2.20;;
65936;SDS011;52707;52.086;5.418;2024-01-15T00:30:16;20.48;;;2.13;;
65936;SDS011;52707;52.086;5.418;2024-01-15T00:32:42;6.32;;;2.00;;
65936;SDS011;52707;52.086;5.418;2024-01-15T00:35:09;15.35;;;2.53;;
65936;SDS011;52707;52.086;5.418;2024-01-15T00:37:35;8.65;;;1.85;;
65936;SDS011;52707;52.086;5.418;2024-01-15T00:40:02;12.90;;;2.05;;
65936;SDS011;52707;52.086;5.418;2024-01-15T00:42:28;7.50;;;1.55;;
65936;SDS011;52707;52.086;5.418;2024-01-15T00:44:55;27.33;;;2.70;;
65936;SDS011;52707;52.086;5.418;2024-01-15T00:47:21;14.60;;;2.45;;
65936;SDS011;52707;52.086;5.418;2024-01-15T00:49:48;11.98;;;1.77;;
65936;SDS011;52707;52.086;5.418;2024-01-15T00:52:14;11.63;;;1.90;;
65936;SDS011;52707;52.086;5.418;2024-01-15T00:54:41;8.27;;;1.50;;
65936;SDS011;52707;52.086;5.418;2024-01-15T00:57:07;13.93;;;2.35;;
65936;SDS011;52707;52.086;5.418;2024-01-15T00:59:34;8.00;;;1.50;;
65936;SDS011;52707;52.086;5.418;2024-01-15T01:02:00;14.40;;;2.00;;
65936;SDS011;52707;52.086;5.418;2024-01-15T01:04:26;11.88;;;2.08;;
65936;SDS011;52707;52.086;5.418;2024-01-15T01:06:53;8.88;;;1.58;;
65936;SDS011;52707;52.086;5.418;2024-01-15T01:09:19;19.38;;;2.60;;
65936;SDS011;52707;52.086;5.418;2024-01-15T01:11:46;8.27;;;1.30;;
65936;SDS011;52707;52.086;5.418;2024-01-15T01:14:12;15.75;;;2.58;;
65936;SDS011;52707;52.086;5.418;2024-01-15T01:16:38;8.30;;;1.40;;
65936;SDS011;52707;52.086;5.418;2024-01-15T01:19:06;13.15;;;2.17;;
65936;SDS011;52707;52.086;5.418;2024-01-15T01:21:33;11.40;;;1.83;;
65936;SDS011;52707;52.086;5.418;2024-01-15T01:24:00;10.52;;;2.05;;
65936;SDS011;52707;52.086;5.418;2024-01-15T01:26:26;15.93;;;1.55;;
65936;SDS011;52707;52.086;5.418;2024-01-15T01:28:52;9.15;;;1.33;;
65936;SDS011;52707;52.086;5.418;2024-01-15T01:31:19;16.35;;;1.73;;
65936;SDS011;52707;52.086;5.418;2024-01-15T01:33:45;15.70;;;2.05;;
65936;SDS011;52707;52.086;5.418;2024-01-15T01:36:12;13.32;;;2.03;;
65936;SDS011;52707;52.086;5.418;2024-01-15T01:38:39;14.88;;;2.13;;
65936;SDS011;52707;52.086;5.418;2024-01-15T01:41:06;13.18;;;2.22;;
65936;SDS011;52707;52.086;5.418;2024-01-15T01:43:32;6.35;;;1.35;;
65936;SDS011;52707;52.086;5.418;2024-01-15T01:45:59;12.02;;;2.47;;
65936;SDS011;52707;52.086;5.418;2024-01-15T01:48:26;14.73;;;1.95;;
65936;SDS011;52707;52.086;5.418;2024-01-15T01:50:54;9.82;;;1.92;;
65936;SDS011;52707;52.086;5.418;2024-01-15T01:53:21;17.63;;;1.98;;
65936;SDS011;52707;52.086;5.418;2024-01-15T01:55:47;4.45;;;1.13;;
65936;SDS011;52707;52.086;5.418;2024-01-15T01:58:14;13.00;;;2.00;;
65936;SDS011;52707;52.086;5.418;2024-01-15T02:00:41;13.73;;;2.22;;
65936;SDS011;52707;52.086;5.418;2024-01-15T02:03:08;7.13;;;1.40;;
65936;SDS011;52707;52.086;5.418;2024-01-15T02:05:34;8.00;;;1.77;;
65936;SDS011;52707;52.086;5.418;2024-01-15T02:08:01;23.23;;;2.40;;
65936;SDS011;52707;52.086;5.418;2024-01-15T02:10:27;14.00;;;1.65;;
65936;SDS011;52707;52.086;5.418;2024-01-15T02:12:54;14.60;;;1.88;;
65936;SDS011;52707;52.086;5.418;2024-01-15T02:15:20;8.77;;;1.27;;
65936;SDS011;52707;52.086;5.418;2024-01-15T02:18:20;12.75;;;1.85;;
65936;SDS011;52707;52.086;5.418;2024-01-15T02:20:39;12.57;;;2.03;;
65936;SDS011;52707;52.086;5.418;2024-01-15T02:25:32;6.43;;;1.42;;
65936;SDS011;52707;52.086;5.418;2024-01-15T02:27:58;11.23;;;1.33;;
65936;SDS011;52707;52.086;5.418;2024-01-15T02:30:25;10.98;;;1.48;;
65936;SDS011;52707;52.086;5.418;2024-01-15T02:32:52;17.25;;;1.58;;
65936;SDS011;52707;52.086;5.418;2024-01-15T02:35:18;5.80;;;1.27;;
65936;SDS011;52707;52.086;5.418;2024-01-15T02:37:45;9.02;;;1.73;;
65936;SDS011;52707;52.086;5.418;2024-01-15T02:40:11;5.57;;;1.98;;
65936;SDS011;52707;52.086;5.418;2024-01-15T02:42:37;2.50;;;0.65;;
65936;SDS011;52707;52.086;5.418;2024-01-15T02:45:04;1.20;;;0.45;;
65936;SDS011;52707;52.086;5.418;2024-01-15T02:47:31;3.20;;;0.93;;
65936;SDS011;52707;52.086;5.418;2024-01-15T02:49:57;7.78;;;1.27;;
65936;SDS011;52707;52.086;5.418;2024-01-15T02:52:24;6.40;;;0.70;;
65936;SDS011;52707;52.086;5.418;2024-01-15T02:54:50;3.72;;;0.55;;
65936;SDS011;52707;52.086;5.418;2024-01-15T02:57:16;14.35;;;1.30;;
65936;SDS011;52707;52.086;5.418;2024-01-15T02:59:43;7.60;;;0.85;;
65936;SDS011;52707;52.086;5.418;2024-01-15T03:02:09;11.18;;;1.75;;
65936;SDS011;52707;52.086;5.418;2024-01-15T03:04:35;4.80;;;1.00;;
65936;SDS011;52707;52.086;5.418;2024-01-15T03:07:02;7.45;;;1.20;;
65936;SDS011;52707;52.086;5.418;2024-01-15T03:09:28;2.05;;;0.60;;
65936;SDS011;52707;52.086;5.418;2024-01-15T03:11:54;3.85;;;0.90;;
65936;SDS011;52707;52.086;5.418;2024-01-15T03:14:21;7.85;;;1.17;;
65936;SDS011;52707;52.086;5.418;2024-01-15T03:16:47;12.73;;;1.35;;
65936;SDS011;52707;52.086;5.418;2024-01-15T03:19:13;7.15;;;1.20;;
65936;SDS011;52707;52.086;5.418;2024-01-15T03:21:40;13.23;;;2.28;;
65936;SDS011;52707;52.086;5.418;2024-01-15T03:24:06;5.43;;;0.90;;
65936;SDS011;52707;52.086;5.418;2024-01-15T03:26:33;5.55;;;0.82;;
65936;SDS011;52707;52.086;5.418;2024-01-15T03:28:59;9.27;;;1.25;;
65936;SDS011;52707;52.086;5.418;2024-01-15T03:31:26;9.13;;;1.10;;
65936;SDS011;52707;52.086;5.418;2024-01-15T03:33:52;4.82;;;1.13;;
65936;SDS011;52707;52.086;5.418;2024-01-15T03:36:19;5.80;;;1.40;;
65936;SDS011;52707;52.086;5.418;2024-01-15T03:38:45;6.80;;;1.40;;
65936;SDS011;52707;52.086;5.418;2024-01-15T03:41:11;8.50;;;1.05;;
65936;SDS011;52707;52.086;5.418;2024-01-15T03:43:38;11.35;;;1.58;;
65936;SDS011;52707;52.086;5.418;2024-01-15T03:46:05;3.58;;;1.35;;
65936;SDS011;52707;52.086;5.418;2024-01-15T03:48:32;7.30;;;1.30;;
65936;SDS011;52707;52.086;5.418;2024-01-15T03:50:59;4.10;;;0.90;;
65936;SDS011;52707;52.086;5.418;2024-01-15T03:53:25;6.53;;;0.90;;
65936;SDS011;52707;52.086;5.418;2024-01-15T03:55:52;5.28;;;0.77;;
65936;SDS011;52707;52.086;5.418;2024-01-15T03:58:18;8.63;;;0.88;;
65936;SDS011;52707;52.086;5.418;2024-01-15T04:00:44;5.35;;;0.93;;
65936;SDS011;52707;52.086;5.418;2024-01-15T04:03:11;6.82;;;1.10;;
65936;SDS011;52707;52.086;5.418;2024-01-15T04:05:38;10.65;;;1.25;;
65936;SDS011;52707;52.086;5.418;2024-01-15T04:08:04;9.13;;;1.70;;
65936;SDS011;52707;52.086;5.418;2024-01-15T04:10:31;7.55;;;1.25;;
65936;SDS011;52707;52.086;5.418;2024-01-15T04:12:57;8.88;;;0.90;;
65936;SDS011;52707;52.086;5.418;2024-01-15T04:15:25;9.43;;;1.25;;
65936;SDS011;52707;52.086;5.418;2024-01-15T04:17:52;4.88;;;0.90;;
65936;SDS011;52707;52.086;5.418;2024-01-15T04:20:18;17.10;;;1.77;;
65936;SDS011;52707;52.086;5.418;2024-01-15T04:22:48;6.53;;;0.80;;
65936;SDS011;52707;52.086;5.418;2024-01-15T04:25:14;7.60;;;1.30;;
65936;SDS011;52707;52.086;5.418;2024-01-15T04:27:40;7.80;;;1.02;;
65936;SDS011;52707;52.086;5.418;2024-01-15T04:30:07;7.32;;;1.50;;
65936;SDS011;52707;52.086;5.418;2024-01-15T04:32:33;10.68;;;1.73;;
65936;SDS011;52707;52.086;5.418;2024-01-15T04:35:00;22.52;;;2.15;;
65936;SDS011;52707;52.086;5.418;2024-01-15T04:37:27;6.25;;;1.08;;
65936;SDS011;52707;52.086;5.418;2024-01-15T04:39:53;10.63;;;1.30;;
65936;SDS011;52707;52.086;5.418;2024-01-15T04:42:21;3.05;;;0.60;;
65936;SDS011;52707;52.086;5.418;2024-01-15T04:44:47;9.70;;;1.00;;
65936;SDS011;52707;52.086;5.418;2024-01-15T04:47:14;6.47;;;1.45;;
65936;SDS011;52707;52.086;5.418;2024-01-15T04:49:40;3.92;;;1.42;;
65936;SDS011;52707;52.086;5.418;2024-01-15T04:52:06;6.82;;;1.40;;
65936;SDS011;52707;52.086;5.418;2024-01-15T04:54:36;11.05;;;1.83;;
65936;SDS011;52707;52.086;5.418;2024-01-15T04:57:02;11.38;;;1.70;;
65936;SDS011;52707;52.086;5.418;2024-01-15T04:59:29;7.53;;;1.48;;
65936;SDS011;52707;52.086;5.418;2024-01-15T05:01:56;8.40;;;1.40;;
65936;SDS011;52707;52.086;5.418;2024-01-15T05:04:22;6.07;;;1.60;;
65936;SDS011;52707;52.086;5.418;2024-01-15T05:06:49;5.95;;;1.13;;
65936;SDS011;52707;52.086;5.418;2024-01-15T05:09:15;10.70;;;1.40;;
65936;SDS011;52707;52.086;5.418;2024-01-15T05:11:42;11.48;;;1.17;;
65936;SDS011;52707;52.086;5.418;2024-01-15T05:14:08;12.50;;;1.10;;
65936;SDS011;52707;52.086;5.418;2024-01-15T05:16:34;16.85;;;2.20;;
65936;SDS011;52707;52.086;5.418;2024-01-15T05:19:01;17.35;;;6.85;;
65936;SDS011;52707;52.086;5.418;2024-01-15T05:21:27;10.02;;;3.03;;
65936;SDS011;52707;52.086;5.418;2024-01-15T05:23:54;8.77;;;2.40;;
65936;SDS011;52707;52.086;5.418;2024-01-15T05:26:20;12.60;;;2.00;;
65936;SDS011;52707;52.086;5.418;2024-01-15T05:28:46;10.38;;;1.48;;
65936;SDS011;52707;52.086;5.418;2024-01-15T05:31:13;9.32;;;1.58;;
65936;SDS011;52707;52.086;5.418;2024-01-15T05:33:39;5.53;;;1.00;;
65936;SDS011;52707;52.086;5.418;2024-01-15T05:36:06;7.80;;;0.93;;
65936;SDS011;52707;52.086;5.418;2024-01-15T05:38:33;7.32;;;1.48;;
65936;SDS011;52707;52.086;5.418;2024-01-15T05:40:59;9.65;;;1.55;;
65936;SDS011;52707;52.086;5.418;2024-01-15T05:43:26;4.47;;;1.55;;
65936;SDS011;52707;52.086;5.418;2024-01-15T05:45:52;18.10;;;2.97;;
65936;SDS011;52707;52.086;5.418;2024-01-15T05:48:18;16.45;;;5.65;;
65936;SDS011;52707;52.086;5.418;2024-01-15T05:50:45;16.95;;;4.43;;
65936;SDS011;52707;52.086;5.418;2024-01-15T05:53:11;9.63;;;1.38;;
65936;SDS011;52707;52.086;5.418;2024-01-15T05:55:38;10.60;;;1.42;;
65936;SDS011;52707;52.086;5.418;2024-01-15T05:58:04;6.57;;;1.80;;
65936;SDS011;52707;52.086;5.418;2024-01-15T06:00:31;12.35;;;1.95;;
65936;SDS011;52707;52.086;5.418;2024-01-15T06:02:59;5.82;;;1.50;;
65936;SDS011;52707;52.086;5.418;2024-01-15T06:05:26;6.13;;;1.77;;
65936;SDS011;52707;52.086;5.418;2024-01-15T06:07:52;12.88;;;1.20;;
65936;SDS011;52707;52.086;5.418;2024-01-15T06:10:18;6.07;;;1.23;;
65936;SDS011;52707;52.086;5.418;2024-01-15T06:12:45;8.32;;;1.23;;
65936;SDS011;52707;52.086;5.418;2024-01-15T06:15:11;3.60;;;1.30;;
65936;SDS011;52707;52.086;5.418;2024-01-15T06:17:39;9.43;;;2.05;;
65936;SDS011;52707;52.086;5.418;2024-01-15T06:20:06;8.90;;;2.60;;
65936;SDS011;52707;52.086;5.418;2024-01-15T06:22:33;10.68;;;3.47;;
65936;SDS011;52707;52.086;5.418;2024-01-15T06:24:59;12.50;;;3.97;;
65936;SDS011;52707;52.086;5.418;2024-01-15T06:27:26;9.80;;;4.53;;
65936;SDS011;52707;52.086;5.418;2024-01-15T06:29:52;2.83;;;1.60;;
65936;SDS011;52707;52.086;5.418;2024-01-15T06:32:19;10.60;;;2.20;;
65936;SDS011;52707;52.086;5.418;2024-01-15T06:34:45;5.60;;;1.38;;
65936;SDS011;52707;52.086;5.418;2024-01-15T06:37:11;5.60;;;1.90;;
65936;SDS011;52707;52.086;5.418;2024-01-15T06:39:38;12.38;;;2.72;;
65936;SDS011;52707;52.086;5.418;2024-01-15T06:42:04;3.13;;;1.52;;
65936;SDS011;52707;52.086;5.418;2024-01-15T06:44:31;4.28;;;1.58;;
65936;SDS011;52707;52.086;5.418;2024-01-15T06:46:57;8.52;;;1.90;;
65936;SDS011;52707;52.086;5.418;2024-01-15T06:49:28;4.35;;;2.50;;
65936;SDS011;52707;52.086;5.418;2024-01-15T06:51:55;8.35;;;3.00;;
65936;SDS011;52707;52.086;5.418;2024-01-15T06:54:22;2.15;;;1.50;;
65936;SDS011;52707;52.086;5.418;2024-01-15T06:56:49;1.85;;;1.35;;
65936;SDS011;52707;52.086;5.418;2024-01-15T06:59:16;8.50;;;1.80;;
65936;SDS011;52707;52.086;5.418;2024-01-15T07:01:45;2.40;;;1.40;;
65936;SDS011;52707;52.086;5.418;2024-01-15T07:04:12;12.48;;;2.22;;
65936;SDS011;52707;52.086;5.418;2024-01-15T07:06:38;4.97;;;1.90;;
65936;SDS011;52707;52.086;5.418;2024-01-15T07:09:05;1.88;;;1.50;;
65936;SDS011;52707;52.086;5.418;2024-01-15T07:11:32;2.40;;;1.75;;
65936;SDS011;52707;52.086;5.418;2024-01-15T07:13:58;2.10;;;1.40;;
65936;SDS011;52707;52.086;5.418;2024-01-15T07:16:25;4.00;;;2.70;;
65936;SDS011;52707;52.086;5.418;2024-01-15T07:19:03;4.28;;;2.40;;
65936;SDS011;52707;52.086;5.418;2024-01-15T07:21:29;6.47;;;2.40;;
65936;SDS011;52707;52.086;5.418;2024-01-15T07:23:56;4.60;;;2.13;;
65936;SDS011;52707;52.086;5.418;2024-01-15T07:26:22;4.28;;;2.38;;
65936;SDS011;52707;52.086;5.418;2024-01-15T07:28:49;10.90;;;4.47;;
65936;SDS011;52707;52.086;5.418;2024-01-15T07:31:15;11.55;;;4.82;;
65936;SDS011;52707;52.086;5.418;2024-01-15T07:33:42;13.13;;;5.75;;
65936;SDS011;52707;52.086;5.418;2024-01-15T07:36:08;6.85;;;3.85;;
65936;SDS011;52707;52.086;5.418;2024-01-15T07:38:35;6.97;;;3.28;;
65936;SDS011;52707;52.086;5.418;2024-01-15T07:41:01;7.10;;;2.75;;
65936;SDS011;52707;52.086;5.418;2024-01-15T07:43:27;4.43;;;2.70;;
65936;SDS011;52707;52.086;5.418;2024-01-15T07:45:54;6.55;;;2.83;;
65936;SDS011;52707;52.086;5.418;2024-01-15T07:48:20;3.10;;;2.80;;
65936;SDS011;52707;52.086;5.418;2024-01-15T07:50:47;3.92;;;2.17;;
65936;SDS011;52707;52.086;5.418;2024-01-15T07:53:13;4.57;;;2.13;;
65936;SDS011;52707;52.086;5.418;2024-01-15T07:55:40;4.50;;;2.40;;
65936;SDS011;52707;52.086;5.418;2024-01-15T07:58:06;3.78;;;2.20;;
65936;SDS011;52707;52.086;5.418;2024-01-15T08:00:42;3.55;;;1.80;;
65936;SDS011;52707;52.086;5.418;2024-01-15T08:03:08;4.47;;;1.98;;
65936;SDS011;52707;52.086;5.418;2024-01-15T08:05:35;2.88;;;1.70;;
65936;SDS011;52707;52.086;5.418;2024-01-15T08:08:01;4.95;;;2.10;;
65936;SDS011;52707;52.086;5.418;2024-01-15T08:10:28;5.03;;;3.40;;
65936;SDS011;52707;52.086;5.418;2024-01-15T08:12:55;7.30;;;3.40;;
65936;SDS011;52707;52.086;5.418;2024-01-15T08:15:21;5.55;;;3.20;;
65936;SDS011;52707;52.086;5.418;2024-01-15T08:17:48;5.43;;;3.00;;
65936;SDS011;52707;52.086;5.418;2024-01-15T08:20:14;5.78;;;3.10;;
65936;SDS011;52707;52.086;5.418;2024-01-15T08:22:42;12.45;;;3.53;;
65936;SDS011;52707;52.086;5.418;2024-01-15T08:25:08;10.77;;;3.30;;
65936;SDS011;52707;52.086;5.418;2024-01-15T08:27:35;6.88;;;2.70;;
65936;SDS011;52707;52.086;5.418;2024-01-15T08:30:01;7.47;;;3.40;;
65936;SDS011;52707;52.086;5.418;2024-01-15T08:32:27;16.15;;;5.45;;
65936;SDS011;52707;52.086;5.418;2024-01-15T08:34:54;10.93;;;4.95;;
65936;SDS011;52707;52.086;5.418;2024-01-15T08:37:20;12.00;;;3.75;;
65936;SDS011;52707;52.086;5.418;2024-01-15T08:39:47;6.50;;;3.03;;
65936;SDS011;52707;52.086;5.418;2024-01-15T08:42:17;21.42;;;3.67;;
65936;SDS011;52707;52.086;5.418;2024-01-15T08:44:43;8.55;;;2.47;;
65936;SDS011;52707;52.086;5.418;2024-01-15T08:47:10;8.18;;;2.03;;
65936;SDS011;52707;52.086;5.418;2024-01-15T08:49:36;13.68;;;4.00;;
65936;SDS011;52707;52.086;5.418;2024-01-15T08:52:03;10.00;;;3.30;;
65936;SDS011;52707;52.086;5.418;2024-01-15T08:54:29;10.27;;;3.00;;
65936;SDS011;52707;52.086;5.418;2024-01-15T08:56:56;13.65;;;3.63;;
65936;SDS011;52707;52.086;5.418;2024-01-15T08:59:22;12.60;;;2.80;;
65936;SDS011;52707;52.086;5.418;2024-01-15T09:01:52;7.85;;;1.90;;
65936;SDS011;52707;52.086;5.418;2024-01-15T09:04:19;14.73;;;3.03;;
65936;SDS011;52707;52.086;5.418;2024-01-15T09:06:45;4.70;;;2.00;;
65936;SDS011;52707;52.086;5.418;2024-01-15T09:09:13;9.45;;;2.83;;
65936;SDS011;52707;52.086;5.418;2024-01-15T09:11:41;5.03;;;2.30;;
65936;SDS011;52707;52.086;5.418;2024-01-15T09:14:07;7.85;;;1.92;;
65936;SDS011;52707;52.086;5.418;2024-01-15T09:16:35;10.35;;;2.42;;
65936;SDS011;52707;52.086;5.418;2024-01-15T09:19:01;8.48;;;2.42;;
65936;SDS011;52707;52.086;5.418;2024-01-15T09:21:28;9.40;;;1.85;;
65936;SDS011;52707;52.086;5.418;2024-01-15T09:23:54;6.45;;;1.25;;
65936;SDS011;52707;52.086;5.418;2024-01-15T09:26:21;9.50;;;1.75;;
65936;SDS011;52707;52.086;5.418;2024-01-15T09:28:47;7.40;;;2.03;;
65936;SDS011;52707;52.086;5.418;2024-01-15T09:31:13;7.25;;;1.90;;
65936;SDS011;52707;52.086;5.418;2024-01-15T09:33:40;4.07;;;1.92;;
65936;SDS011;52707;52.086;5.418;2024-01-15T09:36:07;6.28;;;1.73;;
65936;SDS011;52707;52.086;5.418;2024-01-15T09:38:33;3.58;;;1.25;;
65936;SDS011;52707;52.086;5.418;2024-01-15T09:40:59;10.32;;;1.58;;
65936;SDS011;52707;52.086;5.418;2024-01-15T09:43:26;4.32;;;1.10;;
65936;SDS011;52707;52.086;5.418;2024-01-15T09:45:53;7.00;;;1.67;;
65936;SDS011;52707;52.086;5.418;2024-01-15T09:48:19;6.93;;;1.33;;
65936;SDS011;52707;52.086;5.418;2024-01-15T09:50:46;7.38;;;1.38;;
65936;SDS011;52707;52.086;5.418;2024-01-15T09:53:13;6.10;;;1.50;;
65936;SDS011;52707;52.086;5.418;2024-01-15T09:55:41;8.13;;;1.58;;
65936;SDS011;52707;52.086;5.418;2024-01-15T09:58:07;6.40;;;1.75;;
65936;SDS011;52707;52.086;5.418;2024-01-15T10:00:34;9.00;;;1.42;;
65936;SDS011;52707;52.086;5.418;2024-01-15T10:03:05;9.40;;;1.58;;
65936;SDS011;52707;52.086;5.418;2024-01-15T10:05:32;6.38;;;1.38;;
65936;SDS011;52707;52.086;5.418;2024-01-15T10:07:59;7.65;;;1.25;;
65936;SDS011;52707;52.086;5.418;2024-01-15T10:10:26;5.60;;;1.92;;
65936;SDS011;52707;52.086;5.418;2024-01-15T10:12:53;8.05;;;1.73;;
65936;SDS011;52707;52.086;5.418;2024-01-15T10:15:25;6.78;;;1.70;;
65936;SDS011;52707;52.086;5.418;2024-01-15T10:17:52;6.75;;;1.98;;
65936;SDS011;52707;52.086;5.418;2024-01-15T10:20:19;4.43;;;1.90;;
65936;SDS011;52707;52.086;5.418;2024-01-15T10:22:48;7.07;;;2.30;;
65936;SDS011;52707;52.086;5.418;2024-01-15T10:25:16;4.70;;;1.75;;
65936;SDS011;52707;52.086;5.418;2024-01-15T10:27:52;8.23;;;1.95;;
65936;SDS011;52707;52.086;5.418;2024-01-15T10:30:24;2.85;;;1.05;;
65936;SDS011;52707;52.086;5.418;2024-01-15T10:33:00;19.33;;;2.17;;
65936;SDS011;52707;52.086;5.418;2024-01-15T10:35:31;5.53;;;1.92;;
65936;SDS011;52707;52.086;5.418;2024-01-15T10:38:01;6.75;;;2.05;;
65936;SDS011;52707;52.086;5.418;2024-01-15T10:40:28;8.83;;;1.70;;
65936;SDS011;52707;52.086;5.418;2024-01-15T10:42:54;8.75;;;1.90;;
65936;SDS011;52707;52.086;5.418;2024-01-15T10:45:21;5.45;;;1.38;;
65936;SDS011;52707;52.086;5.418;2024-01-15T10:47:47;8.35;;;1.35;;
65936;SDS011;52707;52.086;5.418;2024-01-15T10:50:15;8.32;;;1.88;;
65936;SDS011;52707;52.086;5.418;2024-01-15T10:52:41;8.77;;;1.63;;
65936;SDS011;52707;52.086;5.418;2024-01-15T10:55:09;11.60;;;1.60;;
65936;SDS011;52707;52.086;5.418;2024-01-15T10:57:43;6.85;;;1.42;;
65936;SDS011;52707;52.086;5.418;2024-01-15T11:00:10;14.43;;;3.22;;
65936;SDS011;52707;52.086;5.418;2024-01-15T11:02:41;22.35;;;3.92;;
65936;SDS011;52707;52.086;5.418;2024-01-15T11:05:08;14.25;;;2.72;;
65936;SDS011;52707;52.086;5.418;2024-01-15T11:07:34;4.68;;;1.88;;
65936;SDS011;52707;52.086;5.418;2024-01-15T11:10:03;6.00;;;1.50;;
65936;SDS011;52707;52.086;5.418;2024-01-15T11:12:29;4.60;;;1.33;;
65936;SDS011;52707;52.086;5.418;2024-01-15T11:15:01;8.75;;;1.55;;
65936;SDS011;52707;52.086;5.418;2024-01-15T11:17:57;9.27;;;1.90;;
65936;SDS011;52707;52.086;5.418;2024-01-15T11:20:16;5.28;;;1.20;;
65936;SDS011;52707;52.086;5.418;2024-01-15T11:25:12;9.20;;;1.50;;
65936;SDS011;52707;52.086;5.418;2024-01-15T11:27:43;10.35;;;1.67;;
65936;SDS011;52707;52.086;5.418;2024-01-15T11:32:37;6.80;;;1.10;;
65936;SDS011;52707;52.086;5.418;2024-01-15T11:35:04;7.53;;;0.80;;
65936;SDS011;52707;52.086;5.418;2024-01-15T11:40:18;3.85;;;1.13;;
65936;SDS011;52707;52.086;5.418;2024-01-15T11:42:45;11.63;;;1.05;;
65936;SDS011;52707;52.086;5.418;2024-01-15T11:45:12;3.20;;;1.50;;
65936;SDS011;52707;52.086;5.418;2024-01-15T11:47:45;3.97;;;0.60;;
65936;SDS011;52707;52.086;5.418;2024-01-15T11:50:17;11.63;;;0.90;;
65936;SDS011;52707;52.086;5.418;2024-01-15T11:52:44;6.03;;;1.27;;
65936;SDS011;52707;52.086;5.418;2024-01-15T12:00:14;1.63;;;0.70;;
65936;SDS011;52707;52.086;5.418;2024-01-15T12:02:41;0.88;;;0.38;;
65936;SDS011;52707;52.086;5.418;2024-01-15T12:05:08;4.03;;;0.82;;
65936;SDS011;52707;52.086;5.418;2024-01-15T12:07:35;5.10;;;0.70;;
65936;SDS011;52707;52.086;5.418;2024-01-15T12:10:02;5.10;;;1.20;;
65936;SDS011;52707;52.086;5.418;2024-01-15T12:12:34;4.35;;;0.88;;
65936;SDS011;52707;52.086;5.418;2024-01-15T12:15:04;8.55;;;1.52;;
65936;SDS011;52707;52.086;5.418;2024-01-15T12:17:30;7.90;;;1.35;;
65936;SDS011;52707;52.086;5.418;2024-01-15T12:19:57;4.82;;;0.93;;
65936;SDS011;52707;52.086;5.418;2024-01-15T12:22:23;2.17;;;0.90;;
65936;SDS011;52707;52.086;5.418;2024-01-15T12:24:49;7.78;;;1.00;;
65936;SDS011;52707;52.086;5.418;2024-01-15T12:27:16;4.30;;;1.00;;
65936;SDS011;52707;52.086;5.418;2024-01-15T12:29:42;2.83;;;0.98;;
65936;SDS011;52707;52.086;5.418;2024-01-15T12:32:09;3.42;;;0.85;;
65936;SDS011;52707;52.086;5.418;2024-01-15T12:34:35;3.15;;;1.38;;
65936;SDS011;52707;52.086;5.418;2024-01-15T12:37:03;5.05;;;0.88;;
65936;SDS011;52707;52.086;5.418;2024-01-15T12:39:30;6.20;;;0.90;;
65936;SDS011;52707;52.086;5.418;2024-01-15T12:41:56;8.82;;;1.05;;
65936;SDS011;52707;52.086;5.418;2024-01-15T12:44:23;5.03;;;1.25;;
65936;SDS011;52707;52.086;5.418;2024-01-15T12:46:50;6.03;;;1.70;;
65936;SDS011;52707;52.086;5.418;2024-01-15T12:49:17;7.07;;;1.20;;
65936;SDS011;52707;52.086;5.418;2024-01-15T12:51:43;11.13;;;1.08;;
65936;SDS011;52707;52.086;5.418;2024-01-15T12:54:09;7.78;;;1.35;;
65936;SDS011;52707;52.086;5.418;2024-01-15T12:56:36;8.63;;;1.02;;
65936;SDS011;52707;52.086;5.418;2024-01-15T12:59:02;4.85;;;0.73;;
65936;SDS011;52707;52.086;5.418;2024-01-15T13:01:29;6.20;;;0.80;;
65936;SDS011;52707;52.086;5.418;2024-01-15T13:03:56;4.75;;;0.80;;
65936;SDS011;52707;52.086;5.418;2024-01-15T13:06:22;4.63;;;0.52;;
65936;SDS011;52707;52.086;5.418;2024-01-15T13:08:49;9.27;;;1.08;;
65936;SDS011;52707;52.086;5.418;2024-01-15T13:11:15;6.72;;;1.05;;
65936;SDS011;52707;52.086;5.418;2024-01-15T13:13:42;3.63;;;0.88;;
65936;SDS011;52707;52.086;5.418;2024-01-15T13:16:08;6.45;;;1.20;;
65936;SDS011;52707;52.086;5.418;2024-01-15T13:18:35;5.32;;;0.65;;
65936;SDS011;52707;52.086;5.418;2024-01-15T13:21:01;6.03;;;1.20;;
65936;SDS011;52707;52.086;5.418;2024-01-15T13:23:28;4.72;;;0.90;;
65936;SDS011;52707;52.086;5.418;2024-01-15T13:25:55;9.73;;;1.35;;
65936;SDS011;52707;52.086;5.418;2024-01-15T13:28:21;9.13;;;1.77;;
65936;SDS011;52707;52.086;5.418;2024-01-15T13:30:49;7.82;;;1.25;;
65936;SDS011;52707;52.086;5.418;2024-01-15T13:33:15;6.38;;;1.30;;
65936;SDS011;52707;52.086;5.418;2024-01-15T13:35:41;7.85;;;1.27;;
65936;SDS011;52707;52.086;5.418;2024-01-15T13:38:08;8.20;;;1.42;;
65936;SDS011;52707;52.086;5.418;2024-01-15T13:40:35;8.45;;;1.75;;
65936;SDS011;52707;52.086;5.418;2024-01-15T13:43:01;5.65;;;1.52;;
65936;SDS011;52707;52.086;5.418;2024-01-15T13:45:28;8.20;;;2.28;;
65936;SDS011;52707;52.086;5.418;2024-01-15T13:47:54;6.38;;;1.23;;
65936;SDS011;52707;52.086;5.418;2024-01-15T13:50:20;9.90;;;1.20;;
65936;SDS011;52707;52.086;5.418;2024-01-15T13:52:49;11.18;;;1.63;;
65936;SDS011;52707;52.086;5.418;2024-01-15T13:55:16;7.47;;;1.58;;
65936;SDS011;52707;52.086;5.418;2024-01-15T13:57:42;11.48;;;1.73;;
65936;SDS011;52707;52.086;5.418;2024-01-15T14:00:09;13.25;;;1.90;;
65936;SDS011;52707;52.086;5.418;2024-01-15T14:02:38;8.27;;;1.60;;
65936;SDS011;52707;52.086;5.418;2024-01-15T14:05:05;9.27;;;1.45;;
65936;SDS011;52707;52.086;5.418;2024-01-15T14:07:32;5.65;;;1.35;;
65936;SDS011;52707;52.086;5.418;2024-01-15T14:09:59;8.52;;;1.60;;
65936;SDS011;52707;52.086;5.418;2024-01-15T14:12:25;6.25;;;1.50;;
65936;SDS011;52707;52.086;5.418;2024-01-15T14:14:52;12.63;;;2.25;;
65936;SDS011;52707;52.086;5.418;2024-01-15T14:17:19;6.03;;;1.45;;
65936;SDS011;52707;52.086;5.418;2024-01-15T14:19:45;6.82;;;1.73;;
65936;SDS011;52707;52.086;5.418;2024-01-15T14:22:12;11.90;;;1.95;;
65936;SDS011;52707;52.086;5.418;2024-01-15T14:24:38;10.25;;;2.05;;
65936;SDS011;52707;52.086;5.418;2024-01-15T14:27:05;8.23;;;1.30;;
65936;SDS011;52707;52.086;5.418;2024-01-15T14:29:33;10.90;;;1.77;;
65936;SDS011;52707;52.086;5.418;2024-01-15T14:31:59;13.45;;;1.30;;
65936;SDS011;52707;52.086;5.418;2024-01-15T14:34:25;11.82;;;1.85;;
65936;SDS011;52707;52.086;5.418;2024-01-15T14:36:52;9.75;;;1.75;;
65936;SDS011;52707;52.086;5.418;2024-01-15T14:39:22;11.25;;;1.40;;
65936;SDS011;52707;52.086;5.418;2024-01-15T14:41:49;5.22;;;1.48;;
65936;SDS011;52707;52.086;5.418;2024-01-15T14:44:15;16.73;;;1.95;;
65936;SDS011;52707;52.086;5.418;2024-01-15T14:46:42;12.68;;;2.08;;
65936;SDS011;52707;52.086;5.418;2024-01-15T14:49:08;9.27;;;1.60;;
65936;SDS011;52707;52.086;5.418;2024-01-15T14:51:35;10.48;;;1.95;;
65936;SDS011;52707;52.086;5.418;2024-01-15T14:54:01;14.57;;;2.58;;
65936;SDS011;52707;52.086;5.418;2024-01-15T14:56:27;9.43;;;2.03;;